createdAt,value
2019-03-09T00:00:12.292Z,99.90
2019-03-09T00:01:21.817Z,99.90
2019-03-09T00:02:26.003Z,99.90
2019-03-09T00:03:30.436Z,99.90
2019-03-09T00:04:34.714Z,99.90
2019-03-09T00:05:38.877Z,99.90
2019-03-09T00:06:43.083Z,99.90
2019-03-09T00:07:47.462Z,99.90
2019-03-09T00:08:51.648Z,99.90
2019-03-09T00:09:55.935Z,99.90
2019-03-09T00:11:00.113Z,99.90
2019-03-09T00:12:04.360Z,99.90
2019-03-09T00:13:08.719Z,99.90
2019-03-09T00:14:13.066Z,99.90
2019-03-09T00:15:17.369Z,99.90
2019-03-09T00:16:21.670Z,99.90
2019-03-09T00:17:26.275Z,99.90
2019-03-09T00:18:30.823Z,99.50
2019-03-09T00:19:35.163Z,99.90
2019-03-09T00:20:39.472Z,99.90
2019-03-09T00:21:43.656Z,99.90
2019-03-09T00:22:51.911Z,98.90
2019-03-09T00:24:14.090Z,99.90
2019-03-09T00:25:29.446Z,99.90
2019-03-09T00:26:47.291Z,99.90
2019-03-09T00:28:03.904Z,99.90
2019-03-09T00:29:33.042Z,99.90
2019-03-09T00:30:59.145Z,99.90
2019-03-09T00:32:06.931Z,99.70
2019-03-09T00:33:11.243Z,99.80
2019-03-09T00:34:15.527Z,98.20
2019-03-09T00:35:19.752Z,99.50
2019-03-09T00:36:24.008Z,99.90
2019-03-09T00:37:28.288Z,99.80
2019-03-09T00:38:32.520Z,99.90
2019-03-09T00:39:36.825Z,99.70
2019-03-09T00:40:41.172Z,99.40
2019-03-09T00:41:45.456Z,98.50
2019-03-09T00:42:49.622Z,99.90
2019-03-09T00:43:53.944Z,99.50
2019-03-09T00:44:58.149Z,99.80
2019-03-09T00:46:02.282Z,99.80
2019-03-09T00:47:06.476Z,99.20
2019-03-09T00:48:10.628Z,98.70
2019-03-09T00:49:14.910Z,97.20
2019-03-09T00:50:19.381Z,97.50
2019-03-09T00:51:24.089Z,98.20
2019-03-09T00:52:28.408Z,97.90
2019-03-09T00:53:32.691Z,97.60
2019-03-09T00:54:37.121Z,97.70
2019-03-09T00:55:41.277Z,97.80
2019-03-09T00:56:45.590Z,97.80
2019-03-09T00:57:49.768Z,97.80
2019-03-09T00:58:54.090Z,97.40
2019-03-09T00:59:59.231Z,97.40
2019-03-09T01:01:03.509Z,98.10
2019-03-09T01:02:07.856Z,98.10
2019-03-09T01:03:12.116Z,98.00
2019-03-09T01:04:16.394Z,97.70
2019-03-09T01:05:20.692Z,97.90
2019-03-09T01:06:24.967Z,97.90
2019-03-09T01:07:29.173Z,97.40
2019-03-09T01:08:33.343Z,97.30
2019-03-09T01:09:37.622Z,97.70
2019-03-09T01:10:41.787Z,98.20
2019-03-09T01:11:46.047Z,98.60
2019-03-09T01:12:50.203Z,98.70
2019-03-09T01:13:54.820Z,97.80
2019-03-09T01:14:59.168Z,97.90
2019-03-09T01:16:03.409Z,96.90
2019-03-09T01:17:07.727Z,97.00
2019-03-09T01:18:12.282Z,97.60
2019-03-09T01:19:16.583Z,97.20
2019-03-09T01:20:20.886Z,97.40
2019-03-09T01:21:25.153Z,97.30
2019-03-09T01:22:29.367Z,97.50
2019-03-09T01:23:33.563Z,97.50
2019-03-09T01:24:37.872Z,97.60
2019-03-09T01:25:42.033Z,97.70
2019-03-09T01:26:46.261Z,97.20
2019-03-09T01:27:50.586Z,96.70
2019-03-09T01:28:54.831Z,96.60
2019-03-09T01:29:58.969Z,97.10
2019-03-09T01:31:03.125Z,96.60
2019-03-09T01:32:07.385Z,97.10
2019-03-09T01:33:11.693Z,97.10
2019-03-09T01:34:15.993Z,96.60
2019-03-09T01:35:20.199Z,97.10
2019-03-09T01:36:24.571Z,96.70
2019-03-09T01:37:28.867Z,96.50
2019-03-09T01:38:33.115Z,97.20
2019-03-09T01:39:37.413Z,97.10
2019-03-09T01:40:41.669Z,96.60
2019-03-09T01:41:45.790Z,96.60
2019-03-09T01:42:50.097Z,97.00
2019-03-09T01:43:54.297Z,97.30
2019-03-09T01:44:58.469Z,96.60
2019-03-09T01:46:02.752Z,96.30
2019-03-09T01:47:07.158Z,96.60
2019-03-09T01:48:11.534Z,96.90
2019-03-09T01:49:15.736Z,97.50
2019-03-09T01:50:20.101Z,97.70
2019-03-09T01:51:24.459Z,97.10
2019-03-09T01:52:28.849Z,95.70
2019-03-09T01:53:36.651Z,96.10
2019-03-09T01:54:39.142Z,96.30
2019-03-09T01:55:43.754Z,96.90
2019-03-09T01:56:48.043Z,97.10
2019-03-09T01:57:52.397Z,96.80
2019-03-09T01:58:56.700Z,97.90
2019-03-09T02:00:00.985Z,96.60
2019-03-09T02:01:05.505Z,96.50
2019-03-09T02:02:09.755Z,96.90
2019-03-09T02:03:14.063Z,96.60
2019-03-09T02:04:18.234Z,96.70
2019-03-09T02:05:22.471Z,97.00
2019-03-09T02:06:26.661Z,96.10
2019-03-09T02:07:30.969Z,97.00
2019-03-09T02:08:35.127Z,97.40
2019-03-09T02:09:39.312Z,96.60
2019-03-09T02:10:43.523Z,95.80
2019-03-09T02:11:47.860Z,95.30
2019-03-09T02:12:51.993Z,96.10
2019-03-09T02:13:56.285Z,96.60
2019-03-09T02:15:00.577Z,96.60
2019-03-09T02:16:04.875Z,96.40
2019-03-09T02:17:09.271Z,96.70
2019-03-09T02:18:13.396Z,97.00
2019-03-09T02:19:17.740Z,97.60
2019-03-09T02:20:22.509Z,97.30
2019-03-09T02:21:26.732Z,97.00
2019-03-09T02:22:30.917Z,96.00
2019-03-09T02:23:35.120Z,95.60
2019-03-09T02:24:39.432Z,96.40
2019-03-09T02:25:43.832Z,96.70
2019-03-09T02:26:48.134Z,96.60
2019-03-09T02:27:52.354Z,97.20
2019-03-09T02:28:56.595Z,96.80
2019-03-09T02:30:00.908Z,96.60
2019-03-09T02:31:05.072Z,96.20
2019-03-09T02:32:09.278Z,97.00
2019-03-09T02:33:13.664Z,96.70
2019-03-09T02:34:18.097Z,97.10
2019-03-09T02:35:22.265Z,97.10
2019-03-09T02:36:26.536Z,96.80
2019-03-09T02:37:30.829Z,96.90
2019-03-09T02:38:59.928Z,96.60
2019-03-09T02:40:29.407Z,96.50
2019-03-09T02:41:33.553Z,95.90
2019-03-09T02:42:37.846Z,96.40
2019-03-09T02:43:42.001Z,95.70
2019-03-09T02:44:46.282Z,95.00
2019-03-09T02:45:51.008Z,96.20
2019-03-09T02:46:55.307Z,97.10
2019-03-09T02:47:59.633Z,97.20
2019-03-09T02:49:03.876Z,97.20
2019-03-09T02:50:09.495Z,97.40
2019-03-09T02:51:13.765Z,96.80
2019-03-09T02:52:18.012Z,96.30
2019-03-09T02:53:22.218Z,96.00
2019-03-09T02:54:26.523Z,96.80
2019-03-09T02:55:30.798Z,98.40
2019-03-09T02:56:35.014Z,98.50
2019-03-09T02:57:39.211Z,97.20
2019-03-09T02:58:43.585Z,97.10
2019-03-09T02:59:48.474Z,96.50
2019-03-09T03:01:00.901Z,96.10
2019-03-09T03:02:21.706Z,96.10
2019-03-09T03:03:26.045Z,96.30
2019-03-09T03:04:30.291Z,96.90
2019-03-09T03:05:34.580Z,96.20
2019-03-09T03:06:38.787Z,96.00
2019-03-09T03:07:43.175Z,96.30
2019-03-09T03:08:47.534Z,96.50
2019-03-09T03:09:51.796Z,96.50
2019-03-09T03:10:56.053Z,96.30
2019-03-09T03:12:00.406Z,96.10
2019-03-09T03:13:04.843Z,96.00
2019-03-09T03:14:08.947Z,96.00
2019-03-09T03:15:14.734Z,95.80
2019-03-09T03:16:19.001Z,95.90
2019-03-09T03:17:23.372Z,95.90
2019-03-09T03:18:27.741Z,95.70
2019-03-09T03:19:32.058Z,95.60
2019-03-09T03:20:36.289Z,95.30
2019-03-09T03:21:40.613Z,94.50
2019-03-09T03:22:44.902Z,95.70
2019-03-09T03:23:49.250Z,95.50
2019-03-09T03:24:53.452Z,95.30
2019-03-09T03:25:57.753Z,95.70
2019-03-09T03:27:02.051Z,95.40
2019-03-09T03:28:06.282Z,95.00
2019-03-09T03:29:10.407Z,95.00
2019-03-09T03:30:14.656Z,96.10
2019-03-09T03:31:18.924Z,95.50
2019-03-09T03:32:23.938Z,96.10
2019-03-09T03:33:28.120Z,95.10
2019-03-09T03:34:32.431Z,96.00
2019-03-09T03:35:36.676Z,96.30
2019-03-09T03:36:41.080Z,95.30
2019-03-09T03:37:45.380Z,96.50
2019-03-09T03:38:49.656Z,96.40
2019-03-09T03:39:54.277Z,96.00
2019-03-09T03:40:58.633Z,96.50
2019-03-09T03:42:02.808Z,97.10
2019-03-09T03:43:07.073Z,95.90
2019-03-09T03:44:11.411Z,96.80
2019-03-09T03:45:16.002Z,96.30
2019-03-09T03:46:20.344Z,95.80
2019-03-09T03:47:24.505Z,96.40
2019-03-09T03:48:28.831Z,95.70
2019-03-09T03:49:33.266Z,95.20
2019-03-09T03:50:37.595Z,95.40
2019-03-09T03:51:41.833Z,95.90
2019-03-09T03:52:46.048Z,95.70
2019-03-09T03:53:50.420Z,96.00
2019-03-09T03:54:54.625Z,96.00
2019-03-09T03:55:58.960Z,95.70
2019-03-09T03:57:03.220Z,95.30
2019-03-09T03:58:07.425Z,95.00
2019-03-09T03:59:11.859Z,95.20
2019-03-09T04:00:16.330Z,95.00
2019-03-09T04:01:20.549Z,95.30
2019-03-09T04:02:24.846Z,95.10
2019-03-09T04:03:29.239Z,96.00
2019-03-09T04:04:33.515Z,95.50
2019-03-09T04:05:37.812Z,95.30
2019-03-09T04:06:42.597Z,95.30
2019-03-09T04:07:47.158Z,95.40
2019-03-09T04:08:51.852Z,95.30
2019-03-09T04:09:56.195Z,95.10
2019-03-09T04:11:00.644Z,95.20
2019-03-09T04:12:04.861Z,95.10
2019-03-09T04:13:09.060Z,95.90
2019-03-09T04:14:13.338Z,95.40
2019-03-09T04:15:17.682Z,95.70
2019-03-09T04:16:22.079Z,96.10
2019-03-09T04:17:26.372Z,96.90
2019-03-09T04:18:30.700Z,96.50
2019-03-09T04:19:35.016Z,96.30
2019-03-09T04:20:39.316Z,96.70
2019-03-09T04:21:43.763Z,96.30
2019-03-09T04:22:48.161Z,97.40
2019-03-09T04:23:52.432Z,97.10
2019-03-09T04:24:56.691Z,97.20
2019-03-09T04:26:00.958Z,97.40
2019-03-09T04:27:05.695Z,97.10
2019-03-09T04:28:09.980Z,96.50
2019-03-09T04:29:14.164Z,97.30
2019-03-09T04:30:18.433Z,97.90
2019-03-09T04:31:22.760Z,97.70
2019-03-09T04:32:27.167Z,98.40
2019-03-09T04:33:31.517Z,99.20
2019-03-09T04:34:35.706Z,99.90
2019-03-09T04:35:39.914Z,98.50
2019-03-09T04:36:44.111Z,98.60
2019-03-09T04:37:48.407Z,99.90
2019-03-09T04:38:52.735Z,99.70
2019-03-09T04:39:57.021Z,98.60
2019-03-09T04:41:01.220Z,98.10
2019-03-09T04:42:05.471Z,98.50
2019-03-09T04:43:09.628Z,96.70
2019-03-09T04:44:13.808Z,98.60
2019-03-09T04:45:18.088Z,97.60
2019-03-09T04:46:22.254Z,98.40
2019-03-09T04:47:26.551Z,99.00
2019-03-09T04:48:30.784Z,98.70
2019-03-09T04:49:34.919Z,99.00
2019-03-09T04:50:39.119Z,99.50
2019-03-09T04:51:43.413Z,99.90
2019-03-09T04:52:47.531Z,99.90
2019-03-09T04:53:51.800Z,99.30
2019-03-09T04:54:55.941Z,99.70
2019-03-09T04:56:00.142Z,99.40
2019-03-09T04:57:04.424Z,99.90
2019-03-09T04:58:08.553Z,99.90
2019-03-09T04:59:12.835Z,99.60
2019-03-09T05:00:17.268Z,99.90
2019-03-09T05:01:21.460Z,99.80
2019-03-09T05:02:25.771Z,99.70
2019-03-09T05:03:29.986Z,99.90
2019-03-09T05:04:58.942Z,99.30
2019-03-09T05:06:03.482Z,98.70
2019-03-09T05:07:07.764Z,98.30
2019-03-09T05:08:33.731Z,98.20
2019-03-09T05:10:13.481Z,98.20
2019-03-09T05:11:24.260Z,97.90
2019-03-09T05:12:28.515Z,98.70
2019-03-09T05:14:05.408Z,98.70
2019-03-09T05:15:10.733Z,99.00
2019-03-09T05:16:15.032Z,98.30
2019-03-09T05:17:19.361Z,98.60
2019-03-09T05:18:23.672Z,99.50
2019-03-09T05:19:27.980Z,97.20
2019-03-09T05:20:32.299Z,98.20
2019-03-09T05:21:36.599Z,98.10
2019-03-09T05:22:41.145Z,98.00
2019-03-09T05:23:45.405Z,97.70
2019-03-09T05:24:49.665Z,98.20
2019-03-09T05:25:53.979Z,98.30
2019-03-09T05:26:58.163Z,97.40
2019-03-09T05:28:02.431Z,97.80
2019-03-09T05:29:06.709Z,98.60
2019-03-09T05:30:12.693Z,99.60
2019-03-09T05:31:17.037Z,99.90
2019-03-09T05:32:21.299Z,99.90
2019-03-09T05:33:25.662Z,99.90
2019-03-09T05:34:30.025Z,99.90
2019-03-09T05:35:34.306Z,99.70
2019-03-09T05:36:38.652Z,99.90
2019-03-09T05:37:43.492Z,99.40
2019-03-09T05:38:47.937Z,99.70
2019-03-09T05:39:52.105Z,99.00
2019-03-09T05:40:56.328Z,99.30
2019-03-09T05:42:00.591Z,99.50
2019-03-09T05:43:05.273Z,99.30
2019-03-09T05:44:09.567Z,99.70
2019-03-09T05:45:13.844Z,99.10
2019-03-09T05:46:18.165Z,99.50
2019-03-09T05:47:22.467Z,98.40
2019-03-09T05:48:26.867Z,98.80
2019-03-09T05:49:30.999Z,98.40
2019-03-09T05:50:35.274Z,98.30
2019-03-09T05:51:39.554Z,98.40
2019-03-09T05:52:43.893Z,98.00
2019-03-09T05:53:48.163Z,98.00
2019-03-09T05:54:52.467Z,98.10
2019-03-09T05:55:56.715Z,98.00
2019-03-09T05:57:00.875Z,97.90
2019-03-09T05:58:05.093Z,98.60
2019-03-09T05:59:09.386Z,98.10
2019-03-09T06:00:15.625Z,97.90
2019-03-09T06:01:19.825Z,98.80
2019-03-09T06:02:24.016Z,97.90
2019-03-09T06:03:28.345Z,98.70
2019-03-09T06:04:32.604Z,98.80
2019-03-09T06:05:47.718Z,98.30
2019-03-09T06:06:51.909Z,98.70
2019-03-09T06:07:56.187Z,98.60
2019-03-09T06:09:00.401Z,98.80
2019-03-09T06:10:04.769Z,98.40
2019-03-09T06:11:08.956Z,98.90
2019-03-09T06:12:13.209Z,98.50
2019-03-09T06:13:17.401Z,98.70
2019-03-09T06:14:21.536Z,98.10
2019-03-09T06:15:25.729Z,97.40
2019-03-09T06:16:29.908Z,97.40
2019-03-09T06:17:34.219Z,97.60
2019-03-09T06:18:38.383Z,98.10
2019-03-09T06:19:42.637Z,97.00
2019-03-09T06:20:46.935Z,97.20
2019-03-09T06:21:51.209Z,97.80
2019-03-09T06:22:55.407Z,97.60
2019-03-09T06:23:59.665Z,97.50
2019-03-09T06:25:03.986Z,97.50
2019-03-09T06:26:08.435Z,97.40
2019-03-09T06:27:12.728Z,97.30
2019-03-09T06:28:17.027Z,96.70
2019-03-09T06:29:21.357Z,96.00
2019-03-09T06:30:25.573Z,95.90
2019-03-09T06:31:29.901Z,96.00
2019-03-09T06:33:10.183Z,96.10
2019-03-09T06:34:14.535Z,97.30
2019-03-09T06:35:18.983Z,96.70
2019-03-09T06:37:12.241Z,96.40
2019-03-09T06:38:33.655Z,96.60
2019-03-09T06:39:47.123Z,96.90
2019-03-09T06:40:51.359Z,97.40
2019-03-09T06:42:26.878Z,97.70
2019-03-09T06:43:31.187Z,98.60
2019-03-09T06:44:35.481Z,98.00
2019-03-09T06:45:39.811Z,97.70
2019-03-09T06:46:43.977Z,98.30
2019-03-09T06:47:48.299Z,99.70
2019-03-09T06:48:52.553Z,99.90
2019-03-09T06:49:56.866Z,99.90
2019-03-09T06:51:01.093Z,99.90
2019-03-09T06:52:05.411Z,99.90
2019-03-09T06:53:09.651Z,99.90
2019-03-09T06:54:13.925Z,99.90
2019-03-09T06:55:18.296Z,99.90
2019-03-09T06:56:22.569Z,99.90
2019-03-09T06:57:26.847Z,99.90
2019-03-09T06:58:31.163Z,99.90
2019-03-09T06:59:35.451Z,99.90
2019-03-09T07:00:41.091Z,99.90
2019-03-09T07:01:45.309Z,99.90
2019-03-09T07:02:49.609Z,99.90
2019-03-09T07:03:53.934Z,99.90
2019-03-09T07:04:58.221Z,99.90
2019-03-09T07:06:02.657Z,99.90
2019-03-09T07:07:06.947Z,99.90
2019-03-09T07:08:11.266Z,99.90
2019-03-09T07:09:15.641Z,99.90
2019-03-09T07:10:19.899Z,99.90
2019-03-09T07:11:24.140Z,99.90
2019-03-09T07:12:28.473Z,99.90
2019-03-09T07:13:32.617Z,99.90
2019-03-09T07:15:20.053Z,99.90
2019-03-09T07:16:24.303Z,99.90
2019-03-09T07:17:28.679Z,99.90
2019-03-09T07:18:35.647Z,99.90
2019-03-09T07:19:39.931Z,99.90
2019-03-09T07:20:44.140Z,99.90
2019-03-09T07:21:48.386Z,99.90
2019-03-09T07:22:52.669Z,99.90
2019-03-09T07:23:56.845Z,99.90
2019-03-09T07:25:01.175Z,99.90
2019-03-09T07:26:24.888Z,99.90
2019-03-09T07:27:29.154Z,99.90
2019-03-09T07:28:33.492Z,99.90
2019-03-09T07:29:37.610Z,99.90
2019-03-09T07:30:41.847Z,99.90
2019-03-09T07:31:46.158Z,99.90
2019-03-09T07:32:52.518Z,99.90
2019-03-09T07:34:21.870Z,99.90
2019-03-09T07:35:26.183Z,99.90
2019-03-09T07:36:30.513Z,99.90
2019-03-09T07:37:34.839Z,99.90
2019-03-09T07:38:39.172Z,99.90
2019-03-09T07:39:43.497Z,99.90
2019-03-09T07:40:47.648Z,99.90
2019-03-09T07:41:51.815Z,99.90
2019-03-09T07:42:56.014Z,99.90
2019-03-09T07:44:00.354Z,99.90
2019-03-09T07:45:05.067Z,99.90
2019-03-09T07:46:09.453Z,99.90
2019-03-09T07:47:13.725Z,99.90
2019-03-09T07:48:17.949Z,99.90
2019-03-09T07:49:22.200Z,99.90
2019-03-09T07:50:26.387Z,99.90
2019-03-09T07:51:30.640Z,99.90
2019-03-09T07:52:36.571Z,99.90
2019-03-09T07:53:40.961Z,99.90
2019-03-09T07:54:45.316Z,99.90
2019-03-09T07:55:49.602Z,99.90
2019-03-09T07:56:53.891Z,99.90
2019-03-09T07:58:01.093Z,99.90
2019-03-09T07:59:24.331Z,99.90
2019-03-09T08:00:28.811Z,99.90
2019-03-09T08:01:33.147Z,99.90
2019-03-09T08:02:37.432Z,99.90
2019-03-09T08:03:41.609Z,99.90
2019-03-09T08:04:46.894Z,99.90
2019-03-09T08:05:51.167Z,99.90
2019-03-09T08:06:56.153Z,99.90
2019-03-09T08:08:00.485Z,99.90
2019-03-09T08:09:05.981Z,99.90
2019-03-09T08:10:13.687Z,99.90
2019-03-09T08:11:19.078Z,99.90
2019-03-09T08:12:24.134Z,99.90
2019-03-09T08:13:28.705Z,99.90
2019-03-09T08:14:33.345Z,99.90
2019-03-09T08:15:37.796Z,99.90
2019-03-09T08:16:42.172Z,99.90
2019-03-09T08:17:46.892Z,99.90
2019-03-09T08:18:51.127Z,99.90
2019-03-09T08:19:55.436Z,99.90
2019-03-09T08:20:59.832Z,99.90
2019-03-09T08:22:04.224Z,99.90
2019-03-09T08:23:08.582Z,99.90
2019-03-09T08:24:12.895Z,99.90
2019-03-09T08:25:17.568Z,99.90
2019-03-09T08:26:21.758Z,99.90
2019-03-09T08:27:26.029Z,99.90
2019-03-09T08:28:30.497Z,99.90
2019-03-09T08:29:34.746Z,99.90
2019-03-09T08:30:39.076Z,99.90
2019-03-09T08:31:43.436Z,99.90
2019-03-09T08:32:47.778Z,99.90
2019-03-09T08:33:52.090Z,99.90
2019-03-09T08:34:56.349Z,99.90
2019-03-09T08:36:00.629Z,99.70
2019-03-09T08:37:04.851Z,99.90
2019-03-09T08:38:09.033Z,99.90
2019-03-09T08:39:13.383Z,99.90
2019-03-09T08:40:18.106Z,99.90
2019-03-09T08:41:22.426Z,99.90
2019-03-09T08:42:26.731Z,99.90
2019-03-09T08:43:31.033Z,99.90
2019-03-09T08:44:35.289Z,99.90
2019-03-09T08:45:39.665Z,98.30
2019-03-09T08:46:44.021Z,99.30
2019-03-09T08:47:52.071Z,99.60
2019-03-09T08:48:55.612Z,99.90
2019-03-09T08:49:59.905Z,99.90
2019-03-09T08:51:04.233Z,99.90
2019-03-09T08:52:08.937Z,99.90
2019-03-09T08:53:13.102Z,99.90
2019-03-09T08:54:17.531Z,99.90
2019-03-09T08:55:21.863Z,99.90
2019-03-09T08:56:26.108Z,99.90
2019-03-09T08:57:30.321Z,99.90
2019-03-09T08:58:34.514Z,99.90
2019-03-09T08:59:38.746Z,99.90
2019-03-09T09:00:42.965Z,99.90
2019-03-09T09:01:47.213Z,99.90
2019-03-09T09:02:51.520Z,99.90
2019-03-09T09:03:55.825Z,99.90
2019-03-09T09:05:00.317Z,99.90
2019-03-09T09:06:04.733Z,99.90
2019-03-09T09:07:09.147Z,99.90
2019-03-09T09:08:13.447Z,99.90
2019-03-09T09:09:17.693Z,99.90
2019-03-09T09:10:21.926Z,99.90
2019-03-09T09:11:26.254Z,99.90
2019-03-09T09:12:30.569Z,99.90
2019-03-09T09:13:34.876Z,99.90
2019-03-09T09:14:39.167Z,99.90
2019-03-09T09:15:43.368Z,99.90
2019-03-09T09:16:47.694Z,99.90
2019-03-09T09:17:51.937Z,99.90
2019-03-09T09:18:56.289Z,99.90
2019-03-09T09:20:00.576Z,99.90
2019-03-09T09:21:04.915Z,99.90
2019-03-09T09:22:09.047Z,99.90
2019-03-09T09:23:13.403Z,99.90
2019-03-09T09:24:17.717Z,99.90
2019-03-09T09:25:22.033Z,99.90
2019-03-09T09:26:26.435Z,99.90
2019-03-09T09:27:30.958Z,99.90
2019-03-09T09:28:35.142Z,99.90
2019-03-09T09:29:39.420Z,99.90
2019-03-09T09:30:44.055Z,99.90
2019-03-09T09:31:48.643Z,99.90
2019-03-09T09:32:52.957Z,99.90
2019-03-09T09:33:58.454Z,99.90
2019-03-09T09:35:03.004Z,99.90
2019-03-09T09:36:07.203Z,99.90
2019-03-09T09:37:11.481Z,99.90
2019-03-09T09:38:15.667Z,99.90
2019-03-09T09:39:20.131Z,99.90
2019-03-09T09:40:24.360Z,99.90
2019-03-09T09:41:28.589Z,99.90
2019-03-09T09:42:32.891Z,99.90
2019-03-09T09:43:37.163Z,99.90
2019-03-09T09:44:41.473Z,99.90
2019-03-09T09:45:45.788Z,99.90
2019-03-09T09:46:49.951Z,99.90
2019-03-09T09:47:54.267Z,99.90
2019-03-09T09:48:58.561Z,99.90
2019-03-09T09:50:02.841Z,99.90
2019-03-09T09:51:07.199Z,99.90
2019-03-09T09:52:11.451Z,99.90
2019-03-09T09:53:15.779Z,99.90
2019-03-09T09:54:20.114Z,99.90
2019-03-09T09:55:24.435Z,99.90
2019-03-09T09:56:28.738Z,99.90
2019-03-09T09:57:32.965Z,99.90
2019-03-09T09:58:37.317Z,99.90
2019-03-09T09:59:41.536Z,99.90
2019-03-09T10:00:45.772Z,99.90
2019-03-09T10:01:50.039Z,99.90
2019-03-09T10:02:54.347Z,99.90
2019-03-09T10:03:58.712Z,99.90
2019-03-09T10:05:02.993Z,99.90
2019-03-09T10:06:07.270Z,99.90
2019-03-09T10:07:11.580Z,99.90
2019-03-09T10:08:16.130Z,99.90
2019-03-09T10:09:20.328Z,99.90
2019-03-09T10:10:24.681Z,99.90
2019-03-09T10:11:29.025Z,99.90
2019-03-09T10:12:33.285Z,99.90
2019-03-09T10:13:37.524Z,99.90
2019-03-09T10:14:41.827Z,99.90
2019-03-09T10:15:46.146Z,99.90
2019-03-09T10:16:50.433Z,99.90
2019-03-09T10:17:54.647Z,99.90
2019-03-09T10:18:59.161Z,99.90
2019-03-09T10:20:03.540Z,99.90
2019-03-09T10:21:07.877Z,99.90
2019-03-09T10:22:12.080Z,99.90
2019-03-09T10:23:16.298Z,99.90
2019-03-09T10:24:20.600Z,99.90
2019-03-09T10:25:24.941Z,99.90
2019-03-09T10:26:29.246Z,99.90
2019-03-09T10:27:33.489Z,99.90
2019-03-09T10:28:37.801Z,99.90
2019-03-09T10:29:42.059Z,99.90
2019-03-09T10:30:46.368Z,99.90
2019-03-09T10:31:50.681Z,99.90
2019-03-09T10:32:54.999Z,99.90
2019-03-09T10:33:59.301Z,99.90
2019-03-09T10:35:03.619Z,99.90
2019-03-09T10:36:08.145Z,99.90
2019-03-09T10:37:12.455Z,99.90
2019-03-09T10:38:16.663Z,99.90
2019-03-09T10:39:21.017Z,99.90
2019-03-09T10:40:25.321Z,99.90
2019-03-09T10:41:29.608Z,99.90
2019-03-09T10:42:33.917Z,99.90
2019-03-09T10:43:38.166Z,99.90
2019-03-09T10:44:42.379Z,99.90
2019-03-09T10:45:46.611Z,99.90
2019-03-09T10:46:50.917Z,99.90
2019-03-09T10:47:55.227Z,99.90
2019-03-09T10:48:59.859Z,99.90
2019-03-09T10:50:04.684Z,99.90
2019-03-09T10:51:08.979Z,99.90
2019-03-09T10:52:13.246Z,98.20
2019-03-09T10:53:17.539Z,99.90
2019-03-09T10:54:21.932Z,99.90
2019-03-09T10:55:26.299Z,99.90
2019-03-09T10:56:30.790Z,99.00
2019-03-09T10:57:35.187Z,99.90
2019-03-09T10:58:39.472Z,99.90
2019-03-09T10:59:43.820Z,99.90
2019-03-09T11:00:48.093Z,99.60
2019-03-09T11:01:52.395Z,99.40
2019-03-09T11:02:56.734Z,97.70
2019-03-09T11:04:01.057Z,96.10
2019-03-09T11:05:05.627Z,97.80
2019-03-09T11:06:10.239Z,98.40
2019-03-09T11:07:14.493Z,98.00
2019-03-09T11:08:18.731Z,96.40
2019-03-09T11:09:23.029Z,96.60
2019-03-09T11:10:27.391Z,96.60
2019-03-09T11:11:31.575Z,97.00
2019-03-09T11:12:35.855Z,96.30
2019-03-09T11:13:40.073Z,95.90
2019-03-09T11:14:44.277Z,98.40
2019-03-09T11:15:48.588Z,99.30
2019-03-09T11:16:52.877Z,98.00
2019-03-09T11:17:57.126Z,97.90
2019-03-09T11:19:01.414Z,97.60
2019-03-09T11:20:06.265Z,99.90
2019-03-09T11:21:10.554Z,99.90
2019-03-09T11:22:14.845Z,99.70
2019-03-09T11:23:19.115Z,98.40
2019-03-09T11:24:23.470Z,99.50
2019-03-09T11:25:27.759Z,96.00
2019-03-09T11:26:31.931Z,97.30
2019-03-09T11:27:36.106Z,94.30
2019-03-09T11:28:40.444Z,95.30
2019-03-09T11:29:44.723Z,96.50
2019-03-09T11:30:49.034Z,96.20
2019-03-09T11:31:53.657Z,96.10
2019-03-09T11:32:57.951Z,95.10
2019-03-09T11:34:02.293Z,96.40
2019-03-09T11:35:06.738Z,99.00
2019-03-09T11:36:10.951Z,97.50
2019-03-09T11:37:15.170Z,96.40
2019-03-09T11:38:19.425Z,95.70
2019-03-09T11:39:23.578Z,95.90
2019-03-09T11:40:27.818Z,94.80
2019-03-09T11:41:32.073Z,96.00
2019-03-09T11:42:36.383Z,94.10
2019-03-09T11:43:40.662Z,95.90
2019-03-09T11:44:44.942Z,93.10
2019-03-09T11:45:49.265Z,94.10
2019-03-09T11:46:53.505Z,93.40
2019-03-09T11:47:57.771Z,91.90
2019-03-09T11:49:01.983Z,92.40
2019-03-09T11:50:07.555Z,91.80
2019-03-09T11:51:12.787Z,92.40
2019-03-09T11:52:20.381Z,92.10
2019-03-09T11:53:23.022Z,92.00
2019-03-09T11:54:27.227Z,92.40
2019-03-09T11:55:31.508Z,92.90
2019-03-09T11:56:35.798Z,92.60
2019-03-09T11:57:39.981Z,92.40
2019-03-09T11:58:44.143Z,92.80
2019-03-09T11:59:48.423Z,94.80
2019-03-09T12:00:52.587Z,95.30
2019-03-09T12:01:56.813Z,91.90
2019-03-09T12:03:00.997Z,90.70
2019-03-09T12:04:05.281Z,88.10
2019-03-09T12:05:09.977Z,90.80
2019-03-09T12:06:14.191Z,91.80
2019-03-09T12:07:18.429Z,91.80
2019-03-09T12:08:22.761Z,91.40
2019-03-09T12:09:26.897Z,90.60
2019-03-09T12:10:31.211Z,91.80
2019-03-09T12:11:35.467Z,91.30
2019-03-09T12:12:39.740Z,90.20
2019-03-09T12:13:44.061Z,91.70
2019-03-09T12:14:48.208Z,91.30
2019-03-09T12:15:52.646Z,92.10
2019-03-09T12:16:56.838Z,90.60
2019-03-09T12:18:01.049Z,88.40
2019-03-09T12:19:05.340Z,88.50
2019-03-09T12:20:09.957Z,87.30
2019-03-09T12:21:14.271Z,88.20
2019-03-09T12:22:18.556Z,90.90
2019-03-09T12:23:24.547Z,84.70
2019-03-09T12:24:28.950Z,84.20
2019-03-09T12:25:33.121Z,86.10
2019-03-09T12:26:37.666Z,87.80
2019-03-09T12:27:42.776Z,87.40
2019-03-09T12:28:47.155Z,88.30
2019-03-09T12:29:51.399Z,88.60
2019-03-09T12:30:55.721Z,85.80
2019-03-09T12:32:00.050Z,82.50
2019-03-09T12:33:04.348Z,85.10
2019-03-09T12:34:08.744Z,85.10
2019-03-09T12:35:13.343Z,84.60
2019-03-09T12:36:17.539Z,85.40
2019-03-09T12:37:21.885Z,87.00
2019-03-09T12:38:26.208Z,86.30
2019-03-09T12:39:30.559Z,83.20
2019-03-09T12:40:34.852Z,82.40
2019-03-09T12:41:39.111Z,82.60
2019-03-09T12:42:43.434Z,84.50
2019-03-09T12:43:47.739Z,82.80
2019-03-09T12:44:52.109Z,82.50
2019-03-09T12:45:56.404Z,82.30
2019-03-09T12:47:00.680Z,85.30
2019-03-09T12:48:05.015Z,86.80
2019-03-09T12:49:09.279Z,87.70
2019-03-09T12:50:15.413Z,88.90
2019-03-09T12:51:19.813Z,88.20
2019-03-09T12:52:24.065Z,89.50
2019-03-09T12:53:28.383Z,89.70
2019-03-09T12:54:32.581Z,90.50
2019-03-09T12:55:36.763Z,90.50
2019-03-09T12:56:41.073Z,90.10
2019-03-09T12:57:45.325Z,89.90
2019-03-09T12:58:49.585Z,87.50
2019-03-09T12:59:53.776Z,90.20
2019-03-09T13:00:58.050Z,91.00
2019-03-09T13:02:02.398Z,90.70
2019-03-09T13:03:06.691Z,91.90
2019-03-09T13:04:12.453Z,91.10
2019-03-09T13:05:17.116Z,89.20
2019-03-09T13:06:21.338Z,88.60
2019-03-09T13:07:25.539Z,88.60
2019-03-09T13:08:29.742Z,88.90
2019-03-09T13:09:34.031Z,87.90
2019-03-09T13:10:38.323Z,88.10
2019-03-09T13:11:42.645Z,89.00
2019-03-09T13:12:47.176Z,86.10
2019-03-09T13:13:51.512Z,87.00
2019-03-09T13:14:55.843Z,90.00
2019-03-09T13:16:00.155Z,87.10
2019-03-09T13:17:04.500Z,85.80
2019-03-09T13:18:08.844Z,82.50
2019-03-09T13:19:13.158Z,84.60
2019-03-09T13:20:17.358Z,86.30
2019-03-09T13:21:21.565Z,87.50
2019-03-09T13:22:25.867Z,86.10
2019-03-09T13:23:30.199Z,83.70
2019-03-09T13:24:34.359Z,82.40
2019-03-09T13:25:38.823Z,82.40
2019-03-09T13:26:43.196Z,82.40
2019-03-09T13:27:47.472Z,83.60
2019-03-09T13:28:51.967Z,83.80
2019-03-09T13:29:56.229Z,80.70
2019-03-09T13:31:00.616Z,83.40
2019-03-09T13:32:04.951Z,80.40
2019-03-09T13:33:09.304Z,81.00
2019-03-09T13:34:13.695Z,82.30
2019-03-09T13:35:17.951Z,78.40
2019-03-09T13:36:22.514Z,80.00
2019-03-09T13:37:26.851Z,77.50
2019-03-09T13:38:31.023Z,78.70
2019-03-09T13:39:35.290Z,79.30
2019-03-09T13:40:39.655Z,79.80
2019-03-09T13:41:43.936Z,81.40
2019-03-09T13:42:48.268Z,78.10
2019-03-09T13:43:52.493Z,80.00
2019-03-09T13:44:56.790Z,78.20
2019-03-09T13:46:01.078Z,79.10
2019-03-09T13:47:05.278Z,80.00
2019-03-09T13:48:09.542Z,80.50
2019-03-09T13:49:13.848Z,80.10
2019-03-09T13:50:18.131Z,77.80
2019-03-09T13:51:22.466Z,78.80
2019-03-09T13:52:26.717Z,78.50
2019-03-09T13:53:31.024Z,77.50
2019-03-09T13:54:35.325Z,78.70
2019-03-09T13:55:39.617Z,80.40
2019-03-09T13:56:43.884Z,76.20
2019-03-09T13:57:48.184Z,75.80